createdAt,value
2019-04-01T00:00:34.455Z,5.70
2019-04-01T00:03:04.329Z,5.60
2019-04-01T00:05:33.221Z,5.60
2019-04-01T00:08:02.099Z,5.60
2019-04-01T00:10:31.103Z,5.50
2019-04-01T00:12:59.993Z,5.50
2019-04-01T00:15:28.886Z,5.50
2019-04-01T00:17:57.981Z,5.40
2019-04-01T00:20:26.874Z,5.40
2019-04-01T00:22:55.894Z,5.40
2019-04-01T00:25:25.065Z,5.30
2019-04-01T00:27:54.058Z,5.30
2019-04-01T00:30:22.947Z,5.30
2019-04-01T00:32:51.943Z,5.20
2019-04-01T00:35:20.936Z,5.20
2019-04-01T00:37:49.830Z,5.20
2019-04-01T00:40:18.773Z,5.10
2019-04-01T00:42:49.454Z,5.10
2019-04-01T00:45:19.965Z,5.00
2019-04-01T00:47:48.977Z,5.00
2019-04-01T00:50:17.870Z,5.00
2019-04-01T00:52:46.761Z,5.00
2019-04-01T00:55:15.652Z,4.90
2019-04-01T00:57:44.542Z,5.00
2019-04-01T01:00:14.765Z,4.90
2019-04-01T01:02:43.655Z,4.90
2019-04-01T01:05:12.547Z,4.90
2019-04-01T01:07:41.642Z,4.80
2019-04-01T01:10:11.058Z,4.80
2019-04-01T01:12:40.040Z,4.80
2019-04-01T01:15:09.324Z,4.80
2019-04-01T01:17:38.333Z,4.80
2019-04-01T01:20:07.946Z,4.70
2019-04-01T01:22:37.037Z,4.70
2019-04-01T01:25:06.934Z,4.70
2019-04-01T01:27:35.847Z,4.70
2019-04-01T01:30:07.398Z,4.70
2019-04-01T01:32:36.263Z,4.60
2019-04-01T01:35:05.897Z,4.60
2019-04-01T01:37:34.891Z,4.50
2019-04-01T01:40:04.296Z,4.50
2019-04-01T01:42:33.390Z,4.50
2019-04-01T01:45:02.281Z,4.40
2019-04-01T01:47:31.252Z,4.40
2019-04-01T01:50:00.237Z,4.40
2019-04-01T01:52:29.466Z,4.40
2019-04-01T01:54:58.336Z,4.40
2019-04-01T01:57:27.249Z,4.30
2019-04-01T01:59:56.141Z,4.40
2019-04-01T02:02:25.131Z,4.30
2019-04-01T02:04:54.029Z,4.30
2019-04-01T02:07:22.916Z,4.30
2019-04-01T02:09:51.787Z,4.30
2019-04-01T02:12:20.697Z,4.30
2019-04-01T02:14:49.589Z,4.20
2019-04-01T02:17:18.481Z,4.20
2019-04-01T02:19:47.326Z,4.20
2019-04-01T02:22:16.161Z,4.20
2019-04-01T02:24:45.032Z,4.20
2019-04-01T02:27:13.861Z,4.20
2019-04-01T02:29:42.731Z,4.10
2019-04-01T02:32:11.565Z,4.20
2019-04-01T02:34:40.427Z,4.10
2019-04-01T02:37:09.259Z,4.10
2019-04-01T02:39:38.134Z,4.10
2019-04-01T02:42:06.956Z,4.10
2019-04-01T02:44:35.831Z,4.10
2019-04-01T02:47:04.660Z,4.10
2019-04-01T02:49:33.539Z,4.10
2019-04-01T02:52:02.373Z,4.00
2019-04-01T02:54:31.252Z,4.00
2019-04-01T02:57:00.078Z,4.00
2019-04-01T02:59:28.953Z,4.00
2019-04-01T03:01:57.791Z,4.00
2019-04-01T03:04:26.672Z,4.00
2019-04-01T03:06:55.494Z,3.90
2019-04-01T03:09:24.382Z,3.90
2019-04-01T03:11:53.199Z,3.90
2019-04-01T03:14:22.068Z,3.90
2019-04-01T03:16:50.935Z,3.90
2019-04-01T03:19:19.769Z,3.80
2019-04-01T03:21:48.642Z,3.80
2019-04-01T03:24:17.512Z,3.80
2019-04-01T03:26:46.341Z,3.70
2019-04-01T03:29:15.219Z,3.70
2019-04-01T03:31:44.132Z,3.80
2019-04-01T03:34:12.956Z,3.80
2019-04-01T03:36:42.126Z,3.80
2019-04-01T03:39:11.000Z,3.70
2019-04-01T03:41:39.833Z,3.80
2019-04-01T03:44:08.711Z,3.70
2019-04-01T03:46:37.582Z,3.70
2019-04-01T03:49:06.545Z,3.70
2019-04-01T03:51:35.582Z,3.70
2019-04-01T03:54:04.455Z,3.70
2019-04-01T03:56:33.288Z,3.60
2019-04-01T03:59:02.172Z,3.60
2019-04-01T04:01:31.030Z,3.60
2019-04-01T04:03:59.849Z,3.50
2019-04-01T04:06:28.812Z,3.50
2019-04-01T04:09:01.616Z,3.50
2019-04-01T04:11:28.167Z,3.50
2019-04-01T04:13:57.051Z,3.50
2019-04-01T04:16:25.911Z,3.40
2019-04-01T04:18:54.739Z,3.40
2019-04-01T04:21:24.243Z,3.40
2019-04-01T04:23:53.471Z,3.40
2019-04-01T04:26:22.303Z,3.40
2019-04-01T04:28:51.179Z,3.40
2019-04-01T04:31:20.042Z,3.40
2019-04-01T04:33:48.877Z,3.30
2019-04-01T04:36:17.826Z,3.30
2019-04-01T04:38:46.782Z,3.30
2019-04-01T04:41:16.266Z,3.30
2019-04-01T04:43:45.118Z,3.30
2019-04-01T04:46:13.990Z,3.30
2019-04-01T04:48:42.819Z,3.20
2019-04-01T04:51:11.688Z,3.20
2019-04-01T04:53:40.563Z,3.20
2019-04-01T04:56:09.395Z,3.20
2019-04-01T04:58:38.265Z,3.20
2019-04-01T05:01:07.137Z,3.20
2019-04-01T05:03:35.964Z,3.10
2019-04-01T05:06:04.836Z,3.10
2019-04-01T05:08:33.712Z,3.10
2019-04-01T05:11:02.547Z,3.10
2019-04-01T05:13:31.415Z,3.10
2019-04-01T05:16:00.287Z,3.10
2019-04-01T05:18:29.122Z,3.10
2019-04-01T05:20:59.595Z,3.10
2019-04-01T05:23:29.366Z,3.10
2019-04-01T05:25:59.099Z,3.10
2019-04-01T05:28:29.979Z,3.10
2019-04-01T05:31:00.451Z,3.10
2019-04-01T05:33:29.571Z,3.10
2019-04-01T05:35:58.437Z,3.10
2019-04-01T05:38:27.407Z,3.20
2019-04-01T05:40:56.243Z,3.20
2019-04-01T05:43:25.411Z,3.20
2019-04-01T05:45:54.270Z,3.30
2019-04-01T05:48:24.671Z,3.30
2019-04-01T05:50:53.748Z,3.40
2019-04-01T05:53:22.619Z,3.40
2019-04-01T05:55:51.447Z,3.50
2019-04-01T05:58:20.324Z,3.60
2019-04-01T06:00:51.164Z,3.70
2019-04-01T06:03:20.415Z,3.80
2019-04-01T06:05:49.379Z,3.90
2019-04-01T06:08:18.247Z,4.00
2019-04-01T06:10:47.079Z,4.10
2019-04-01T06:13:16.249Z,4.20
2019-04-01T06:15:45.218Z,4.30
2019-04-01T06:18:26.242Z,4.50
2019-04-01T06:20:55.118Z,4.60
2019-04-01T06:23:23.947Z,4.80
2019-04-01T06:25:53.311Z,4.90
2019-04-01T06:28:22.182Z,5.10
2019-04-01T06:30:52.591Z,5.20
2019-04-01T06:33:21.459Z,5.30
2019-04-01T06:35:50.323Z,5.50
2019-04-01T06:38:19.257Z,5.60
2019-04-01T06:40:48.619Z,5.70
2019-04-01T06:43:17.484Z,5.80
2019-04-01T06:45:46.306Z,5.90
2019-04-01T06:48:15.174Z,6.10
2019-04-01T06:50:44.048Z,6.20
2019-04-01T06:53:12.873Z,6.30
2019-04-01T06:55:41.835Z,6.40
2019-04-01T06:58:12.084Z,6.50
2019-04-01T07:00:41.131Z,6.60
2019-04-01T07:03:10.091Z,6.70
2019-04-01T07:05:38.964Z,6.80
2019-04-01T07:08:07.996Z,6.80
2019-04-01T07:10:36.852Z,6.80
2019-04-01T07:13:05.723Z,6.90
2019-04-01T07:15:34.885Z,6.90
2019-04-01T07:18:03.713Z,7.00
2019-04-01T07:20:32.575Z,7.20
2019-04-01T07:23:01.503Z,7.40
2019-04-01T07:25:33.836Z,7.50
2019-04-01T07:28:00.994Z,7.70
2019-04-01T07:30:29.815Z,7.90
2019-04-01T07:32:58.688Z,8.10
2019-04-01T07:35:27.564Z,8.30
2019-04-01T07:37:56.488Z,8.40
2019-04-01T07:40:25.351Z,8.50
2019-04-01T07:42:54.219Z,8.60
2019-04-01T07:45:23.048Z,8.80
2019-04-01T07:47:51.924Z,8.90
2019-04-01T07:50:20.784Z,8.90
2019-04-01T07:52:49.598Z,9.00
2019-04-01T07:55:18.469Z,9.10
2019-04-01T07:57:47.329Z,9.20
2019-04-01T08:00:16.454Z,9.40
2019-04-01T08:02:48.818Z,9.50
2019-04-01T08:05:16.518Z,9.70
2019-04-01T08:07:45.343Z,10.00
2019-04-01T08:10:14.616Z,10.20
2019-04-01T08:12:43.479Z,10.40
2019-04-01T08:15:12.444Z,10.60
2019-04-01T08:17:41.307Z,10.70
2019-04-01T08:20:10.284Z,10.80
2019-04-01T08:22:39.116Z,10.90
2019-04-01T08:25:08.378Z,11.00
2019-04-01T08:27:49.271Z,11.10
2019-04-01T08:30:18.237Z,11.20
2019-04-01T08:32:47.107Z,11.40
2019-04-01T08:35:16.135Z,11.60
2019-04-01T08:37:45.004Z,11.80
2019-04-01T08:40:14.074Z,11.80
2019-04-01T08:42:43.007Z,11.90
2019-04-01T08:45:12.676Z,11.90
2019-04-01T08:47:41.544Z,12.00
2019-04-01T08:50:10.635Z,12.20
2019-04-01T08:52:39.509Z,12.20
2019-04-01T08:55:08.327Z,12.30
2019-04-01T08:57:37.182Z,12.30
2019-04-01T09:00:07.527Z,12.30
2019-04-01T09:02:36.392Z,12.40
2019-04-01T09:05:06.123Z,12.50
2019-04-01T09:07:34.999Z,12.60
2019-04-01T09:10:04.166Z,12.90
2019-04-01T09:12:45.282Z,13.10
2019-04-01T09:15:14.230Z,13.20
2019-04-01T09:17:43.073Z,13.30
2019-04-01T09:20:11.934Z,13.50
2019-04-01T09:22:40.806Z,13.70
2019-04-01T09:25:27.871Z,13.70
2019-04-01T09:27:56.847Z,13.80
2019-04-01T09:30:25.680Z,13.80
2019-04-01T09:32:54.552Z,13.80
2019-04-01T09:35:23.442Z,13.90
2019-04-01T09:37:52.316Z,14.00
2019-04-01T09:40:21.148Z,14.10
2019-04-01T09:42:50.020Z,14.30
2019-04-01T09:45:18.846Z,14.60
2019-04-01T09:47:47.708Z,14.70
2019-04-01T09:50:16.538Z,14.80
2019-04-01T09:52:45.416Z,14.80
2019-04-01T09:55:14.646Z,14.80
2019-04-01T09:57:43.512Z,15.00
2019-04-01T10:00:12.856Z,15.10
2019-04-01T10:02:41.684Z,15.30
2019-04-01T10:05:10.758Z,15.40
2019-04-01T10:07:39.634Z,15.30
2019-04-01T10:10:12.227Z,15.30
2019-04-01T10:12:41.052Z,15.30
2019-04-01T10:15:10.033Z,15.40
2019-04-01T10:17:38.864Z,15.50
2019-04-01T10:20:08.733Z,15.60
2019-04-01T10:22:37.563Z,15.60
2019-04-01T10:25:06.738Z,15.40
2019-04-01T10:27:35.572Z,15.30
2019-04-01T10:30:07.171Z,15.40
2019-04-01T10:32:36.007Z,15.60
2019-04-01T10:35:06.981Z,15.90
2019-04-01T10:37:35.810Z,16.10
2019-04-01T10:40:06.975Z,16.30
2019-04-01T10:42:35.919Z,16.40
2019-04-01T10:45:09.504Z,16.50
2019-04-01T10:47:38.388Z,16.40
2019-04-01T10:50:08.327Z,16.40
2019-04-01T10:52:37.268Z,16.10
2019-04-01T10:55:07.053Z,16.00
2019-04-01T10:57:35.919Z,16.00
2019-04-01T11:00:07.570Z,16.20
2019-04-01T11:02:36.436Z,16.50
2019-04-01T11:05:07.770Z,16.60
2019-04-01T11:07:36.597Z,16.70
2019-04-01T11:10:11.302Z,16.90
2019-04-01T11:12:38.717Z,17.00
2019-04-01T11:15:08.088Z,17.00
2019-04-01T11:17:36.974Z,17.10
2019-04-01T11:20:09.484Z,17.00
2019-04-01T11:22:38.405Z,17.10
2019-04-01T11:25:08.312Z,17.30
2019-04-01T11:27:37.371Z,17.30
2019-04-01T11:30:08.024Z,17.30
2019-04-01T11:32:37.936Z,17.20
2019-04-01T11:35:08.007Z,17.10
2019-04-01T11:37:36.907Z,17.10
2019-04-01T11:40:11.131Z,17.30
2019-04-01T11:42:40.392Z,17.60
2019-04-01T11:45:08.948Z,18.00
2019-04-01T11:47:37.816Z,18.30
2019-04-01T11:50:07.896Z,18.50
2019-04-01T11:52:38.079Z,18.50
2019-04-01T11:55:09.121Z,18.70
2019-04-01T11:57:38.534Z,18.80
2019-04-01T12:00:12.738Z,18.80
2019-04-01T12:02:41.692Z,18.80
2019-04-01T12:05:12.254Z,18.90
2019-04-01T12:07:41.168Z,18.80
2019-04-01T12:10:10.634Z,18.80
2019-04-01T12:12:39.536Z,18.80
2019-04-01T12:15:12.075Z,19.00
2019-04-01T12:17:41.519Z,19.10
2019-04-01T12:20:10.025Z,19.10
2019-04-01T12:22:40.596Z,19.20
2019-04-01T12:25:09.659Z,19.40
2019-04-01T12:27:50.519Z,19.40
2019-04-01T12:30:19.495Z,19.40
2019-04-01T12:32:49.604Z,19.30
2019-04-01T12:35:19.303Z,19.20
2019-04-01T12:37:48.488Z,19.10
2019-04-01T12:40:17.354Z,19.00
2019-04-01T12:42:46.617Z,19.20
2019-04-01T12:45:15.972Z,19.30
2019-04-01T12:47:44.808Z,19.10
2019-04-01T12:50:13.878Z,19.10
2019-04-01T12:52:42.903Z,19.10
2019-04-01T12:55:11.957Z,19.10
2019-04-01T12:57:40.788Z,19.10
2019-04-01T13:00:11.996Z,19.20
2019-04-01T13:02:40.815Z,19.20
2019-04-01T13:05:09.679Z,19.30
2019-04-01T13:07:38.515Z,19.40
2019-04-01T13:10:07.894Z,19.60
2019-04-01T13:12:36.798Z,19.70
2019-04-01T13:15:06.078Z,19.70
2019-04-01T13:17:35.067Z,19.70
2019-04-01T13:20:05.215Z,19.60
2019-04-01T13:22:34.104Z,19.30
2019-04-01T13:25:05.658Z,19.30
2019-04-01T13:27:33.525Z,19.30
2019-04-01T13:30:02.419Z,19.10
2019-04-01T13:32:31.308Z,19.20
2019-04-01T13:35:00.301Z,19.30
2019-04-01T13:37:29.173Z,19.50
2019-04-01T13:39:58.084Z,19.50
2019-04-01T13:42:26.908Z,19.40
2019-04-01T13:44:55.772Z,19.00
2019-04-01T13:47:24.607Z,18.80
2019-04-01T13:49:53.475Z,18.60
2019-04-01T13:52:22.311Z,18.50
2019-04-01T13:54:51.161Z,18.40
2019-04-01T13:57:20.032Z,18.30
2019-04-01T13:59:49.854Z,18.40
2019-04-01T14:02:19.378Z,18.40
2019-04-01T14:04:48.207Z,18.50
2019-04-01T14:07:17.075Z,18.70
2019-04-01T14:09:45.903Z,18.80
2019-04-01T14:12:14.933Z,18.70
2019-04-01T14:14:43.859Z,18.70
2019-04-01T14:17:12.810Z,18.80
2019-04-01T14:19:41.707Z,18.80
2019-04-01T14:22:10.872Z,18.90
2019-04-01T14:24:42.518Z,18.70
2019-04-01T14:27:11.805Z,18.40
2019-04-01T14:29:41.634Z,18.20
2019-04-01T14:32:10.556Z,18.20
2019-04-01T14:34:40.081Z,18.00
2019-04-01T14:37:09.964Z,18.10
2019-04-01T14:39:40.138Z,18.30
2019-04-01T14:42:10.170Z,18.40
2019-04-01T14:44:39.047Z,18.60
2019-04-01T14:47:09.209Z,18.70
2019-04-01T14:49:38.417Z,18.90
2019-04-01T14:52:08.898Z,18.90
2019-04-01T14:54:37.864Z,18.80
2019-04-01T14:57:08.286Z,18.80
2019-04-01T14:59:37.353Z,18.70
2019-04-01T15:02:06.675Z,18.60
2019-04-01T15:04:36.021Z,18.50
2019-04-01T15:07:04.913Z,18.50
2019-04-01T15:09:36.063Z,18.50
2019-04-01T15:12:04.938Z,18.50
2019-04-01T15:14:34.685Z,18.50
2019-04-01T15:17:06.353Z,18.50
2019-04-01T15:19:35.330Z,18.40
2019-04-01T15:22:04.167Z,18.20
2019-04-01T15:24:33.049Z,18.20
2019-04-01T15:27:02.122Z,18.20
2019-04-01T15:29:30.947Z,18.20
2019-04-01T15:31:59.826Z,18.10
2019-04-01T15:34:28.660Z,18.00
2019-04-01T15:36:59.282Z,18.00
2019-04-01T15:39:28.314Z,17.90
2019-04-01T15:41:57.312Z,17.80
2019-04-01T15:44:29.187Z,17.80
2019-04-01T15:46:56.730Z,17.70
2019-04-01T15:49:25.621Z,17.70
2019-04-01T15:51:54.624Z,17.70
2019-04-01T15:54:23.507Z,17.60
2019-04-01T15:56:52.397Z,17.60
2019-04-01T15:59:21.288Z,17.50
2019-04-01T16:01:50.159Z,17.40
2019-04-01T16:04:19.173Z,17.40
2019-04-01T16:06:48.167Z,17.30
2019-04-01T16:09:17.161Z,17.30
2019-04-01T16:11:48.062Z,17.20
2019-04-01T16:14:19.333Z,17.10
2019-04-01T16:16:47.292Z,17.10
2019-04-01T16:19:16.309Z,17.00
2019-04-01T16:21:45.200Z,16.90
2019-04-01T16:24:14.255Z,16.80
2019-04-01T16:26:44.317Z,16.70
2019-04-01T16:29:13.206Z,16.60
2019-04-01T16:31:42.200Z,16.60
2019-04-01T16:34:11.094Z,16.50
2019-04-01T16:36:39.959Z,16.40
2019-04-01T16:39:09.995Z,16.30
2019-04-01T16:41:39.094Z,16.20
2019-04-01T16:44:44.760Z,16.10
2019-04-01T16:47:14.558Z,16.00
2019-04-01T16:49:43.630Z,15.90
2019-04-01T16:52:15.313Z,15.80
2019-04-01T16:54:46.047Z,15.70
2019-04-01T16:57:15.024Z,15.70
2019-04-01T16:59:43.944Z,15.60
2019-04-01T17:02:18.089Z,15.50
2019-04-01T17:04:46.159Z,15.40
2019-04-01T17:07:15.095Z,15.30
2019-04-01T17:09:43.931Z,15.20
2019-04-01T17:12:12.766Z,15.00
2019-04-01T17:14:43.253Z,14.90
2019-04-01T17:17:12.102Z,14.80
2019-04-01T17:19:40.943Z,14.70
2019-04-01T17:22:11.386Z,14.60
2019-04-01T17:24:40.632Z,14.40
2019-04-01T17:27:12.515Z,14.40
2019-04-01T17:29:43.920Z,14.30
2019-04-01T17:32:12.789Z,14.20
2019-04-01T17:34:41.618Z,14.10
2019-04-01T17:37:10.796Z,14.00
2019-04-01T17:39:39.623Z,13.90
2019-04-01T17:42:08.499Z,13.90
2019-04-01T17:44:37.334Z,13.80
2019-04-01T17:47:06.593Z,13.70
2019-04-01T17:49:35.581Z,13.60
2019-04-01T17:52:04.571Z,13.50
2019-04-01T17:54:33.389Z,13.40
2019-04-01T17:57:02.264Z,13.30
2019-04-01T17:59:31.088Z,13.30
2019-04-01T18:01:59.929Z,13.20
2019-04-01T18:04:28.799Z,13.10
2019-04-01T18:06:58.393Z,13.00
2019-04-01T18:09:27.305Z,13.00
2019-04-01T18:11:56.123Z,12.90
2019-04-01T18:14:24.993Z,12.80
2019-04-01T18:16:53.827Z,12.70
2019-04-01T18:19:22.707Z,12.60
2019-04-01T18:21:51.541Z,12.50
2019-04-01T18:24:20.402Z,12.50
2019-04-01T18:26:49.347Z,12.40
2019-04-01T18:29:18.422Z,12.40
2019-04-01T18:31:47.256Z,12.30
2019-04-01T18:34:17.280Z,12.20
2019-04-01T18:36:46.212Z,12.20
2019-04-01T18:39:15.350Z,12.10
2019-04-01T18:41:45.576Z,12.00
2019-04-01T18:44:14.807Z,12.00
2019-04-01T18:46:43.917Z,11.90
2019-04-01T18:49:12.851Z,11.90
2019-04-01T18:51:41.739Z,11.80
2019-04-01T18:54:10.591Z,11.80
2019-04-01T18:56:42.139Z,11.70
2019-04-01T18:59:11.011Z,11.60
2019-04-01T19:01:39.847Z,11.60
2019-04-01T19:04:08.715Z,11.50
2019-04-01T19:06:37.693Z,11.40
2019-04-01T19:09:09.314Z,11.40
2019-04-01T19:11:38.494Z,11.30
2019-04-01T19:14:07.391Z,11.20
2019-04-01T19:16:36.300Z,11.10
2019-04-01T19:19:05.273Z,11.10
2019-04-01T19:21:34.160Z,11.00
2019-04-01T19:24:06.434Z,11.00
2019-04-01T19:26:33.606Z,10.90
2019-04-01T19:29:02.498Z,10.80
2019-04-01T19:31:31.391Z,10.80
2019-04-01T19:34:00.384Z,10.70
2019-04-01T19:36:30.144Z,10.60
2019-04-01T19:38:59.394Z,10.60
2019-04-01T19:41:28.239Z,10.50
2019-04-01T19:43:57.075Z,10.40
2019-04-01T19:46:25.947Z,10.30
2019-04-01T19:48:54.809Z,10.30
2019-04-01T19:51:23.645Z,10.20
2019-04-01T19:53:53.272Z,10.20
2019-04-01T19:56:22.484Z,10.10
2019-04-01T19:58:51.310Z,10.00
2019-04-01T20:01:20.587Z,10.00
2019-04-01T20:03:49.446Z,9.90
2019-04-01T20:06:18.529Z,9.90
2019-04-01T20:08:49.724Z,9.80
2019-04-01T20:11:18.249Z,9.80
2019-04-01T20:13:47.076Z,9.70
2019-04-01T20:16:16.042Z,9.70
2019-04-01T20:18:57.425Z,9.60
2019-04-01T20:21:28.102Z,9.60
2019-04-01T20:23:56.846Z,9.50
2019-04-01T20:26:25.710Z,9.40
2019-04-01T20:28:54.731Z,9.40
2019-04-01T20:31:23.723Z,9.40
2019-04-01T20:33:52.545Z,9.30
2019-04-01T20:36:28.408Z,9.20
2019-04-01T20:38:51.902Z,9.10
2019-04-01T20:41:21.627Z,9.10
2019-04-01T20:44:03.015Z,9.00
2019-04-01T20:46:31.876Z,9.00
2019-04-01T20:49:02.009Z,8.90
2019-04-01T20:51:31.074Z,8.80
2019-04-01T20:53:59.901Z,8.80
2019-04-01T20:56:28.815Z,8.70
2019-04-01T20:58:57.680Z,8.70
2019-04-01T21:01:26.598Z,8.60
2019-04-01T21:03:55.596Z,8.50
2019-04-01T21:06:24.484Z,8.50
2019-04-01T21:08:53.374Z,8.50
2019-04-01T21:11:22.266Z,8.40
2019-04-01T21:14:22.670Z,8.40
2019-04-01T21:16:51.793Z,8.30
2019-04-01T21:19:22.117Z,8.30
2019-04-01T21:21:51.189Z,8.20
2019-04-01T21:24:20.186Z,8.20
2019-04-01T21:26:49.098Z,8.10
2019-04-01T21:29:18.090Z,8.10
2019-04-01T21:31:47.179Z,8.00
2019-04-01T21:34:16.990Z,7.90
2019-04-01T21:36:47.011Z,7.90
2019-04-01T21:39:15.891Z,7.80
2019-04-01T21:41:44.808Z,7.80
2019-04-01T21:44:13.668Z,7.70
2019-04-01T21:46:43.216Z,7.70
2019-04-01T21:49:14.137Z,7.70
2019-04-01T21:51:42.977Z,7.60
2019-04-01T21:54:11.843Z,7.60
2019-04-01T21:56:40.663Z,7.50
2019-04-01T21:59:10.623Z,7.50
2019-04-01T22:01:39.527Z,7.50
2019-04-01T22:04:08.382Z,7.40
2019-04-01T22:06:39.012Z,7.40
2019-04-01T22:09:09.512Z,7.40
2019-04-01T22:11:38.460Z,7.30
2019-04-01T22:14:07.350Z,7.30
2019-04-01T22:16:36.242Z,7.30
2019-04-01T22:19:05.351Z,7.20
2019-04-01T22:21:34.681Z,7.20
2019-04-01T22:24:04.283Z,7.20
2019-04-01T22:26:33.551Z,7.10
2019-04-01T22:29:02.438Z,7.10
2019-04-01T22:31:33.024Z,7.00
2019-04-01T22:34:01.971Z,7.00
2019-04-01T22:36:31.473Z,6.90
2019-04-01T22:39:00.460Z,6.90
2019-04-01T22:41:29.450Z,6.80
2019-04-01T22:43:58.839Z,6.80
2019-04-01T22:46:27.700Z,6.70
2019-04-01T22:48:56.519Z,6.70
2019-04-01T22:51:25.380Z,6.60
2019-04-01T22:53:54.240Z,6.60
2019-04-01T22:56:23.060Z,6.50
2019-04-01T22:58:51.924Z,6.50
2019-04-01T23:01:21.874Z,6.40
2019-04-01T23:03:50.807Z,6.40
2019-04-01T23:06:19.698Z,6.30
2019-04-01T23:08:48.589Z,6.30
2019-04-01T23:11:18.608Z,6.30
2019-04-01T23:13:49.228Z,6.20
2019-04-01T23:16:18.035Z,6.20
2019-04-01T23:18:47.127Z,6.10
2019-04-01T23:21:16.021Z,6.10
2019-04-01T23:23:44.907Z,6.00
2019-04-01T23:26:13.798Z,6.00
2019-04-01T23:28:42.691Z,5.90
2019-04-01T23:31:11.586Z,5.80
2019-04-01T23:33:40.471Z,5.80
2019-04-01T23:36:09.438Z,5.80
2019-04-01T23:38:38.357Z,5.70
2019-04-01T23:41:07.247Z,5.70
2019-04-01T23:47:04.525Z,5.60
2019-04-01T23:49:33.415Z,5.60
2019-04-01T23:52:02.413Z,5.50
2019-04-01T23:54:31.631Z,5.50
2019-04-01T23:57:00.682Z,5.50
2019-04-01T23:59:29.697Z,5.50
